Huvudsida
METAR-TAF:

METAR-TAF

Flygplatser :

Hyderabad Old Airport

Hyderabad, Indien

latitud: 17-27N, longitud: 078-28E, höjd: 530 m

Aktuellt väderrapport

Denna rapport gjordes för 24 minuter sedan, klockan 09:30 UTC
Vind 3 kt från väst
Temperatur 42°C
Fuktighet 25%
Tryck 1006 hPa
Sikt: 6000 m

METAR: VOHY 270930Z 26003KT 6000 NSC 42/18 Q1006 NOSIG

Tid: 15:24 (09:54 UTC)

Väderprognos

Denna rapport gjordes för 1 timme och 54 minuter sedan, klockan 08:00 UTC
Prognos gäller från 27 kl. 09 UTC till 27 kl. 18 UTC
Vind 7 kt från väst i byarna ända upp till 18 kt
Sikt: 6000 m
Spridda moln på en höjd av 1500 ft
Temporärt
från 27 kl. 14 UTC till 27 kl. 18 UTC
Få moln på en höjd av 3000 ft, Cumulonimbus.
Brutna moln på en höjd av 10000 ft

TAF: VOHY 270800Z 2709/2718 26007G18KT 6000 SCT015 TEMPO 2714/2718 FEW030CB BKN100

Aktuella väderrapporter och prognoser från 4000 flygplatser (METAR- och TAF-rapporter).

De tillgängliga stationerna syns som gula och röda prickar på kartan.

För musen över prickarna för att se namnen på stationerna.

Klicka sedan för att få väderrapporter och prognoser.

För att ändra kartan: Klicka på de gröna knapparna med ett svart kors på för att zooma in; den gröna knappen med ett streck på för att zooma ut; eller på de gröna pilarna för angränsande kartor.


METAR-TAF: